createdAt,value
2018-02-07T00:00:55.727Z,-1.43
2018-02-07T00:01:55.728Z,-1.28
2018-02-07T00:02:55.997Z,-1.35
2018-02-07T00:03:55.756Z,-1.34
2018-02-07T00:04:56.020Z,-1.28
2018-02-07T00:05:56.009Z,-1.37
2018-02-07T00:08:10.729Z,-1.35
2018-02-07T00:08:56.042Z,-1.31
2018-02-07T00:10:10.753Z,-1.33
2018-02-07T00:10:56.065Z,-1.41
2018-02-07T00:11:55.850Z,-1.37
2018-02-07T00:12:56.108Z,-1.43
2018-02-07T00:13:55.870Z,-1.38
2018-02-07T00:14:55.886Z,-1.41
2018-02-07T00:15:56.122Z,-1.41
2018-02-07T00:16:56.138Z,-1.4
2018-02-07T00:18:56.176Z,-1.51
2018-02-07T00:19:56.199Z,-1.46
2018-02-07T00:20:56.266Z,-1.51
2018-02-07T00:21:56.209Z,-1.46
2018-02-07T00:22:56.210Z,-1.51
2018-02-07T00:23:56.224Z,-1.41
2018-02-07T00:24:56.241Z,-1.49
2018-02-07T00:25:56.253Z,-1.38
2018-02-07T00:26:56.256Z,-1.37
2018-02-07T00:27:56.383Z,-1.35
2018-02-07T00:28:56.288Z,-1.34
2018-02-07T00:29:56.034Z,-1.41
2018-02-07T00:30:56.067Z,-1.51
2018-02-07T00:31:56.326Z,-1.51
2018-02-07T00:32:56.344Z,-1.48
2018-02-07T00:33:56.092Z,-1.52
2018-02-07T00:34:56.350Z,-1.48
2018-02-07T00:35:56.367Z,-1.4
2018-02-07T00:36:56.380Z,-1.49
2018-02-07T00:37:56.378Z,-1.46
2018-02-07T00:38:56.387Z,-1.55
2018-02-07T00:39:56.425Z,-1.55
2018-02-07T00:40:56.421Z,-1.41
2018-02-07T00:42:11.107Z,-1.34
2018-02-07T00:42:56.443Z,-1.43
2018-02-07T00:43:56.217Z,-1.41
2018-02-07T00:44:56.502Z,-1.34
2018-02-07T00:45:56.493Z,-1.38
2018-02-07T00:46:56.228Z,-1.46
2018-02-07T00:47:56.501Z,-1.49
2018-02-07T00:48:56.267Z,-1.46
2018-02-07T00:49:56.527Z,-1.59
2018-02-07T00:50:56.542Z,-1.49
2018-02-07T00:51:56.300Z,-1.51
2018-02-07T00:52:56.542Z,-1.54
2018-02-07T00:53:56.579Z,-1.48
2018-02-07T00:54:56.579Z,-1.35
2018-02-07T00:55:56.343Z,-1.48
2018-02-07T00:56:56.612Z,-1.48
2018-02-07T00:58:11.283Z,-1.38
2018-02-07T00:58:56.634Z,-1.52
2018-02-07T00:59:56.644Z,-1.49
2018-02-07T01:00:56.661Z,-1.48
2018-02-07T01:01:56.646Z,-1.56
2018-02-07T01:03:56.681Z,-1.48
2018-02-07T01:04:56.697Z,-1.52
2018-02-07T01:05:56.716Z,-1.41
2018-02-07T01:06:56.716Z,-1.37
2018-02-07T01:08:56.506Z,-1.4
2018-02-07T01:09:56.751Z,-1.45
2018-02-07T01:10:56.760Z,-1.4
2018-02-07T01:11:56.792Z,-1.4
2018-02-07T01:12:56.518Z,-1.4
2018-02-07T01:14:11.482Z,-1.37
2018-02-07T01:14:56.814Z,-1.37
2018-02-07T01:15:56.577Z,-1.27
2018-02-07T01:16:56.839Z,-1.28
2018-02-07T01:17:56.860Z,-1.33
2018-02-07T01:19:56.618Z,-1.4
2018-02-07T01:20:56.610Z,-1.4
2018-02-07T01:21:56.900Z,-1.34
2018-02-07T01:22:56.910Z,-1.33
2018-02-07T01:23:56.933Z,-1.37
2018-02-07T01:24:56.923Z,-1.37
2018-02-07T01:25:56.691Z,-1.45
2018-02-07T01:28:56.966Z,-1.27
2018-02-07T01:30:11.653Z,-1.31
2018-02-07T01:30:56.740Z,-1.3
2018-02-07T01:31:56.988Z,-1.35
2018-02-07T01:32:56.761Z,-1.4
2018-02-07T01:33:56.527Z,-1.35
2018-02-07T01:34:57.041Z,-1.33
2018-02-07T01:35:56.798Z,-1.31
2018-02-07T01:36:56.793Z,-1.38
2018-02-07T01:37:57.077Z,-1.38
2018-02-07T01:38:57.071Z,-1.35
2018-02-07T01:40:11.768Z,-1.35
2018-02-07T01:40:56.602Z,-1.3
2018-02-07T01:41:56.872Z,-1.28
2018-02-07T01:42:57.227Z,-1.37
2018-02-07T01:43:56.640Z,-1.33
2018-02-07T01:45:11.814Z,-1.25
2018-02-07T01:46:11.841Z,-1.23
2018-02-07T01:46:57.183Z,-1.31
2018-02-07T01:47:57.181Z,-1.28
2018-02-07T01:49:57.214Z,-1.31
2018-02-07T01:51:57.247Z,-1.3
2018-02-07T01:52:57.290Z,-1.33
2018-02-07T01:53:57.254Z,-1.38
2018-02-07T01:54:57.309Z,-1.35
2018-02-07T01:55:57.272Z,-1.33
2018-02-07T01:56:57.285Z,-1.2
2018-02-07T01:58:11.975Z,-1.3
2018-02-07T01:58:57.302Z,-1.37
2018-02-07T01:59:57.334Z,-1.34
2018-02-07T02:00:57.348Z,-1.38
2018-02-07T02:01:57.087Z,-1.43
2018-02-07T02:02:57.339Z,-1.33
2018-02-07T02:03:57.384Z,-1.4
2018-02-07T02:04:57.377Z,-1.46
2018-02-07T02:05:57.143Z,-1.46
2018-02-07T02:06:57.399Z,-1.46
2018-02-07T02:07:57.424Z,-1.48
2018-02-07T02:08:57.423Z,-1.51
2018-02-07T02:09:57.432Z,-1.51
2018-02-07T02:10:57.440Z,-1.51
2018-02-07T02:11:57.469Z,-1.49
2018-02-07T02:12:57.464Z,-1.55
2018-02-07T02:13:57.468Z,-1.51
2018-02-07T02:14:57.348Z,-1.49
2018-02-07T02:15:57.256Z,-1.49
2018-02-07T02:17:12.196Z,-1.49
2018-02-07T02:17:57.521Z,-1.46
2018-02-07T02:19:57.544Z,-1.52
2018-02-07T02:20:57.053Z,-1.48
2018-02-07T02:21:57.299Z,-1.48
2018-02-07T02:22:57.592Z,-1.52
2018-02-07T02:23:57.605Z,-1.59
2018-02-07T02:24:57.604Z,-1.43
2018-02-07T02:25:57.604Z,-1.55
2018-02-07T02:27:12.293Z,-1.51
2018-02-07T02:27:57.657Z,-1.55
2018-02-07T02:28:57.387Z,-1.41
2018-02-07T02:30:57.425Z,-1.43
2018-02-07T02:31:57.682Z,-1.46
2018-02-07T02:33:12.113Z,-1.51
2018-02-07T02:33:57.711Z,-1.49
2018-02-07T02:34:57.733Z,-1.51
2018-02-07T02:35:57.737Z,-1.48
2018-02-07T02:36:57.742Z,-1.52
2018-02-07T02:37:57.750Z,-1.37
2018-02-07T02:38:57.752Z,-1.33
2018-02-07T02:40:12.449Z,-1.31
2018-02-07T02:40:57.791Z,-1.33
2018-02-07T02:42:57.810Z,-1.25
2018-02-07T02:43:57.911Z,-1.31
2018-02-07T02:44:57.823Z,-1.27
2018-02-07T02:46:57.857Z,-1.3
2018-02-07T02:47:57.867Z,-1.33
2018-02-07T02:49:12.550Z,-1.34
2018-02-07T02:49:57.898Z,-1.35
2018-02-07T02:50:57.637Z,-1.33
2018-02-07T02:51:57.922Z,-1.4
2018-02-07T02:53:12.597Z,-1.38
2018-02-07T02:54:12.605Z,-1.22
2018-02-07T02:54:57.955Z,-1.22
2018-02-07T02:55:57.973Z,-1.19
2018-02-07T02:56:57.986Z,-1.16
2018-02-07T02:57:57.988Z,-1.23
2018-02-07T02:58:57.981Z,-1.28
2018-02-07T02:59:57.762Z,-1.2
2018-02-07T03:00:58.022Z,-1.15
2018-02-07T03:01:58.028Z,-1.12
2018-02-07T03:02:58.045Z,-1.33
2018-02-07T03:03:58.052Z,-1.22
2018-02-07T03:05:12.727Z,-1.27
2018-02-07T03:05:57.826Z,-1.4
2018-02-07T03:06:58.104Z,-1.31
2018-02-07T03:07:58.081Z,-1.3
2018-02-07T03:08:58.105Z,-1.33
2018-02-07T03:09:58.112Z,-1.27
2018-02-07T03:10:57.868Z,-1.2
2018-02-07T03:12:12.810Z,-1.3
2018-02-07T03:12:58.142Z,-1.3
2018-02-07T03:13:58.168Z,-1.25
2018-02-07T03:16:58.213Z,-1.19
2018-02-07T03:17:58.203Z,-1.13
2018-02-07T03:18:57.977Z,-1.17
2018-02-07T03:20:12.902Z,-1.31
2018-02-07T03:20:58.236Z,-1.27
2018-02-07T03:21:57.999Z,-1.25
2018-02-07T03:22:58.267Z,-1.28
2018-02-07T03:23:58.389Z,-1.4
2018-02-07T03:24:58.291Z,-1.43
2018-02-07T03:25:58.051Z,-1.37
2018-02-07T03:26:58.060Z,-1.51
2018-02-07T03:27:58.338Z,-1.41
2018-02-07T03:28:58.336Z,-1.51
2018-02-07T03:29:58.349Z,-1.54
2018-02-07T03:30:58.358Z,-1.46
2018-02-07T03:31:58.378Z,-1.49
2018-02-07T03:32:58.422Z,-1.38
2018-02-07T03:33:58.397Z,-1.54
2018-02-07T03:34:58.388Z,-1.43
2018-02-07T03:35:58.159Z,-1.54
2018-02-07T03:36:58.424Z,-1.38
2018-02-07T03:37:58.434Z,-1.38
2018-02-07T03:38:58.440Z,-1.52
2018-02-07T03:39:58.472Z,-1.4
2018-02-07T03:40:58.468Z,-1.4
2018-02-07T03:41:58.502Z,-1.4
2018-02-07T03:42:58.231Z,-1.38
2018-02-07T03:43:58.513Z,-1.31
2018-02-07T03:44:58.261Z,-1.41
2018-02-07T03:45:58.534Z,-1.31
2018-02-07T03:47:13.226Z,-1.3
2018-02-07T03:47:58.056Z,-1.4
2018-02-07T03:48:58.566Z,-1.33
2018-02-07T03:49:58.423Z,-1.23
2018-02-07T03:50:58.574Z,-1.31
2018-02-07T03:52:13.017Z,-1.33
2018-02-07T03:52:58.614Z,-1.4
2018-02-07T03:53:58.629Z,-1.37
2018-02-07T03:54:58.614Z,-1.31
2018-02-07T03:55:58.650Z,-1.3
2018-02-07T03:56:58.711Z,-1.23
2018-02-07T03:58:13.333Z,-1.22
2018-02-07T03:58:58.675Z,-1.16
2018-02-07T03:59:58.446Z,-1.2
2018-02-07T04:00:58.452Z,-1.2
2018-02-07T04:01:58.711Z,-1.27
2018-02-07T04:02:58.469Z,-1.27
2018-02-07T04:03:58.738Z,-1.23
2018-02-07T04:04:58.747Z,-1.23
2018-02-07T04:05:58.752Z,-1.23
2018-02-07T04:06:58.768Z,-1.17
2018-02-07T04:08:13.442Z,-1.13
2018-02-07T04:08:58.805Z,-1.17
2018-02-07T04:09:58.796Z,-1.13
2018-02-07T04:10:58.561Z,-1.23
2018-02-07T04:12:13.495Z,-1.38
2018-02-07T04:12:58.588Z,-1.43
2018-02-07T04:13:58.595Z,-1.33
2018-02-07T04:14:58.853Z,-1.33
2018-02-07T04:15:58.873Z,-1.35
2018-02-07T04:17:13.546Z,-1.31
2018-02-07T04:17:58.903Z,-1.34
2018-02-07T04:18:58.894Z,-1.34
2018-02-07T04:20:13.335Z,-1.27
2018-02-07T04:20:58.426Z,-1.2
2018-02-07T04:21:58.441Z,-1.3
2018-02-07T04:22:58.933Z,-1.3
2018-02-07T04:24:13.629Z,-1.28
2018-02-07T04:25:13.635Z,-1.28
2018-02-07T04:25:58.994Z,-1.19
2018-02-07T04:26:58.994Z,-1.2
2018-02-07T04:27:58.990Z,-1.23
2018-02-07T04:28:59.044Z,-1.25
2018-02-07T04:30:59.041Z,-1.4
2018-02-07T04:31:59.037Z,-1.37
2018-02-07T04:32:58.827Z,-1.37
2018-02-07T04:33:58.824Z,-1.38
2018-02-07T04:35:13.753Z,-1.33
2018-02-07T04:35:59.094Z,-1.34
2018-02-07T04:36:58.851Z,-1.33
2018-02-07T04:37:59.123Z,-1.38
2018-02-07T04:38:58.865Z,-1.31
2018-02-07T04:40:13.821Z,-1.3
2018-02-07T04:40:59.172Z,-1.31
2018-02-07T04:41:59.166Z,-1.3
2018-02-07T04:42:58.910Z,-1.22
2018-02-07T04:44:13.599Z,-1.38
2018-02-07T04:44:59.217Z,-1.38
2018-02-07T04:45:59.217Z,-1.35
2018-02-07T04:46:59.221Z,-1.23
2018-02-07T04:47:59.223Z,-1.16
2018-02-07T04:49:13.915Z,-1.13
2018-02-07T04:49:59.009Z,-1.16
2018-02-07T04:50:59.019Z,-1.19
2018-02-07T04:51:59.010Z,-1.22
2018-02-07T04:52:59.295Z,-1.31
2018-02-07T04:53:59.047Z,-1.22
2018-02-07T04:55:58.821Z,-1.3
2018-02-07T04:56:59.333Z,-1.3
2018-02-07T04:57:59.363Z,-1.34
2018-02-07T04:58:59.343Z,-1.34
2018-02-07T04:59:58.874Z,-1.3
2018-02-07T05:00:59.136Z,-1.27
2018-02-07T05:01:58.898Z,-1.28
2018-02-07T05:02:59.427Z,-1.2
2018-02-07T05:04:14.086Z,-1.19
2018-02-07T05:04:59.434Z,-1.23
2018-02-07T05:05:59.437Z,-1.22
2018-02-07T05:06:59.442Z,-1.23
2018-02-07T05:07:59.471Z,-1.1
2018-02-07T05:08:59.489Z,-1.15
2018-02-07T05:09:59.222Z,-1.19
2018-02-07T05:11:59.261Z,-1.27
2018-02-07T05:12:59.529Z,-1.28
2018-02-07T05:13:59.272Z,-1.3
2018-02-07T05:14:59.286Z,-1.25
2018-02-07T05:15:59.556Z,-1.25
2018-02-07T05:16:59.574Z,-1.19
2018-02-07T05:17:59.571Z,-1.16
2018-02-07T05:18:59.388Z,-1.23
2018-02-07T05:19:59.598Z,-1.31
2018-02-07T05:20:59.621Z,-1.25
2018-02-07T05:21:59.625Z,-1.31
2018-02-07T05:22:59.387Z,-1.2
2018-02-07T05:24:59.649Z,-1.17
2018-02-07T05:25:59.421Z,-1.23
2018-02-07T05:27:14.340Z,-1.25
2018-02-07T05:27:59.693Z,-1.23
2018-02-07T05:28:59.447Z,-1.23
2018-02-07T05:29:59.715Z,-1.25
2018-02-07T05:30:59.726Z,-1.25
2018-02-07T05:31:59.744Z,-1.17
2018-02-07T05:32:59.746Z,-1.16
2018-02-07T05:33:59.754Z,-1.17
2018-02-07T05:34:59.771Z,-1.16
2018-02-07T05:36:14.452Z,-1.15
2018-02-07T05:36:59.559Z,-1.09
2018-02-07T05:38:59.556Z,-1.19
2018-02-07T05:39:59.592Z,-1.16
2018-02-07T05:41:14.517Z,-1.09
2018-02-07T05:41:59.859Z,-1.05
2018-02-07T05:43:14.530Z,-1.07
2018-02-07T05:43:59.860Z,-1.1
2018-02-07T05:44:59.636Z,-1.16
2018-02-07T05:45:59.898Z,-1.17
2018-02-07T05:46:59.895Z,-1.15
2018-02-07T05:47:59.920Z,-1.23
2018-02-07T05:48:59.686Z,-1.19
2018-02-07T05:49:59.706Z,-1.15
2018-02-07T05:51:59.961Z,-1.13
2018-02-07T05:52:59.977Z,-1.16
2018-02-07T05:53:59.732Z,-1.15
2018-02-07T05:55:59.746Z,-1.19
2018-02-07T05:57:00.025Z,-1.02
2018-02-07T05:58:00.032Z,-1.19
2018-02-07T05:59:14.456Z,-1.1
2018-02-07T06:00:00.072Z,-1.15
2018-02-07T06:01:00.138Z,-1.07
2018-02-07T06:01:59.833Z,-1.1
2018-02-07T06:02:59.834Z,-1.07
2018-02-07T06:03:59.849Z,-1.01
2018-02-07T06:04:59.851Z,-1.02
2018-02-07T06:06:00.133Z,-1.04
2018-02-07T06:07:00.153Z,-1.01
2018-02-07T06:08:00.159Z,-0.98
2018-02-07T06:08:59.653Z,-1.01
2018-02-07T06:10:00.166Z,-0.97
2018-02-07T06:10:59.938Z,-1.09
2018-02-07T06:11:59.940Z,-1.01
2018-02-07T06:13:00.216Z,-0.97
2018-02-07T06:14:00.219Z,-1.02
2018-02-07T06:15:14.900Z,-0.95
2018-02-07T06:16:00.242Z,-0.94
2018-02-07T06:16:59.984Z,-0.97
2018-02-07T06:18:00.280Z,-1.02
2018-02-07T06:19:14.692Z,-1.01
2018-02-07T06:20:00.282Z,-0.98
2018-02-07T06:21:00.045Z,-1.02
2018-02-07T06:22:00.045Z,-1.04
2018-02-07T06:23:00.331Z,-1.01
2018-02-07T06:24:00.320Z,-1.04
2018-02-07T06:25:00.339Z,-0.95
2018-02-07T06:27:00.125Z,-1.07
2018-02-07T06:27:59.866Z,-1.07
2018-02-07T06:29:00.132Z,-1.09
2018-02-07T06:30:14.828Z,-1.04
2018-02-07T06:32:00.441Z,-1.02
2018-02-07T06:33:00.437Z,-1.02
2018-02-07T06:34:00.471Z,-1.09
2018-02-07T06:35:00.455Z,-1.04
2018-02-07T06:35:59.959Z,-1.04
2018-02-07T06:38:14.909Z,-0.99
2018-02-07T06:39:00.505Z,-1.07
2018-02-07T06:40:00.518Z,-0.98
2018-02-07T06:41:00.280Z,-1.04
2018-02-07T06:42:00.538Z,-1.05
2018-02-07T06:43:00.314Z,-1.05
2018-02-07T06:44:00.583Z,-0.97
2018-02-07T06:45:00.312Z,-1.02
2018-02-07T06:46:00.348Z,-1.12
2018-02-07T06:47:15.273Z,-1.04
2018-02-07T06:48:00.619Z,-0.95
2018-02-07T06:49:00.638Z,-0.99
2018-02-07T06:51:00.658Z,-1.07
2018-02-07T06:53:00.658Z,-0.97
2018-02-07T06:54:00.675Z,-1.01
2018-02-07T06:56:00.714Z,-0.99
2018-02-07T06:58:00.723Z,-0.97
2018-02-07T06:59:00.738Z,-1.09
2018-02-07T07:00:00.764Z,-1.04
2018-02-07T07:01:00.519Z,-1.05
2018-02-07T07:02:15.443Z,-1.02
2018-02-07T07:03:00.779Z,-1.07
2018-02-07T07:04:00.795Z,-0.97
2018-02-07T07:05:00.552Z,-0.91
2018-02-07T07:06:00.807Z,-0.91
2018-02-07T07:07:00.840Z,-0.91
2018-02-07T07:08:00.840Z,-0.97
2018-02-07T07:09:00.838Z,-0.95
2018-02-07T07:10:00.858Z,-0.97
2018-02-07T07:11:15.541Z,-1.01
2018-02-07T07:12:00.890Z,-0.95
2018-02-07T07:13:00.901Z,-1.09
2018-02-07T07:14:00.915Z,-1.02
2018-02-07T07:16:00.931Z,-1.02
2018-02-07T07:17:00.952Z,-0.94
2018-02-07T07:18:15.634Z,-1.02
2018-02-07T07:19:00.714Z,-0.97
2018-02-07T07:20:00.981Z,-0.86
2018-02-07T07:21:00.995Z,-0.91
2018-02-07T07:22:01.022Z,-0.85
2018-02-07T07:24:00.777Z,-0.89
2018-02-07T07:25:15.708Z,-0.92
2018-02-07T07:26:01.051Z,-0.8
2018-02-07T07:27:00.551Z,-0.82
2018-02-07T07:28:01.087Z,-0.8
2018-02-07T07:29:00.853Z,-0.69
2018-02-07T07:30:01.094Z,-0.79
2018-02-07T07:31:01.105Z,-0.86
2018-02-07T07:32:00.876Z,-0.99
2018-02-07T07:33:01.133Z,-0.92
2018-02-07T07:34:15.820Z,-0.86
2018-02-07T07:35:00.638Z,-0.89
2018-02-07T07:36:01.177Z,-0.82
2018-02-07T07:37:01.167Z,-0.83
2018-02-07T07:38:15.860Z,-0.91
2018-02-07T07:39:00.941Z,-0.97
2018-02-07T07:40:01.215Z,-0.78
2018-02-07T07:41:01.244Z,-0.82
2018-02-07T07:42:01.238Z,-0.95
2018-02-07T07:43:01.251Z,-0.95
2018-02-07T07:44:01.251Z,-0.92
2018-02-07T07:45:01.015Z,-0.79
2018-02-07T07:46:01.277Z,-0.75
2018-02-07T07:47:01.306Z,-0.76
2018-02-07T07:48:01.045Z,-0.69
2018-02-07T07:49:01.073Z,-0.67
2018-02-07T07:50:16.007Z,-0.69
2018-02-07T07:51:01.347Z,-0.7
2018-02-07T07:52:01.345Z,-0.64
2018-02-07T07:53:01.482Z,-0.64
2018-02-07T07:54:01.396Z,-0.58
2018-02-07T07:55:01.390Z,-0.64
2018-02-07T07:56:01.396Z,-0.64
2018-02-07T07:57:01.421Z,-0.6
2018-02-07T07:58:01.434Z,-0.65
2018-02-07T07:59:01.189Z,-0.61
2018-02-07T08:00:01.447Z,-0.61
2018-02-07T08:01:01.468Z,-0.61
2018-02-07T08:02:01.484Z,-0.58
2018-02-07T08:03:01.496Z,-0.6
2018-02-07T08:04:01.249Z,-0.75
2018-02-07T08:05:16.178Z,-0.7
2018-02-07T08:06:01.267Z,-0.82
2018-02-07T08:07:01.530Z,-0.91
2018-02-07T08:08:01.548Z,-0.91
2018-02-07T08:09:01.571Z,-0.91
2018-02-07T08:10:01.579Z,-0.82
2018-02-07T08:11:01.697Z,-0.91
2018-02-07T08:12:01.591Z,-0.94
2018-02-07T08:13:01.602Z,-0.97
2018-02-07T08:14:01.613Z,-0.95
2018-02-07T08:15:01.644Z,-1.01
2018-02-07T08:17:01.660Z,-0.94
2018-02-07T08:18:01.682Z,-1.01
2018-02-07T08:19:01.707Z,-0.89
2018-02-07T08:20:01.448Z,-0.94
2018-02-07T08:21:01.702Z,-0.95
2018-02-07T08:22:01.734Z,-0.98
2018-02-07T08:23:01.727Z,-0.97
2018-02-07T08:24:01.492Z,-0.95
2018-02-07T08:25:01.755Z,-0.98
2018-02-07T08:26:01.764Z,-0.99
2018-02-07T08:27:01.792Z,-0.89
2018-02-07T08:28:01.773Z,-0.89
2018-02-07T08:29:01.813Z,-0.94
2018-02-07T08:30:16.492Z,-0.98
2018-02-07T08:32:01.588Z,-0.91
2018-02-07T08:33:01.862Z,-0.86
2018-02-07T08:34:01.621Z,-0.8
2018-02-07T08:35:01.637Z,-0.98
2018-02-07T08:36:01.886Z,-0.86
2018-02-07T08:37:16.322Z,-0.94
2018-02-07T08:38:01.917Z,-0.92
2018-02-07T08:39:01.915Z,-0.99
2018-02-07T08:40:01.936Z,-0.99
2018-02-07T08:41:16.635Z,-0.99
2018-02-07T08:42:01.955Z,-1.05
2018-02-07T08:43:02.043Z,-1.04
2018-02-07T08:44:01.988Z,-1.1
2018-02-07T08:45:01.746Z,-1.12
2018-02-07T08:46:01.761Z,-1.01
2018-02-07T08:48:02.045Z,-1.09
2018-02-07T08:49:02.063Z,-1.09
2018-02-07T08:50:01.819Z,-1.07
2018-02-07T08:51:02.052Z,-0.98
2018-02-07T08:52:02.086Z,-1.1
2018-02-07T08:53:16.774Z,-1.07
2018-02-07T08:54:01.867Z,-1.05
2018-02-07T08:56:16.801Z,-1.04
2018-02-07T08:57:02.165Z,-1.01
2018-02-07T08:58:02.163Z,-1.02
2018-02-07T08:59:02.173Z,-1.15
2018-02-07T09:00:01.925Z,-1.04
2018-02-07T09:01:01.691Z,-1.1
2018-02-07T09:02:02.219Z,-1.02
2018-02-07T09:03:01.947Z,-1.16
2018-02-07T09:04:01.974Z,-0.99
2018-02-07T09:05:02.232Z,-0.99
2018-02-07T09:06:02.259Z,-0.97
2018-02-07T09:07:02.252Z,-1.05
2018-02-07T09:08:02.257Z,-1.17
2018-02-07T09:09:16.960Z,-1.17
2018-02-07T09:10:02.323Z,-1.16
2018-02-07T09:11:16.982Z,-1.12
2018-02-07T09:12:02.338Z,-1.15
2018-02-07T09:13:02.341Z,-1.04
2018-02-07T09:14:02.335Z,-1.16
2018-02-07T09:15:02.357Z,-1.12
2018-02-07T09:16:02.376Z,-1.1
2018-02-07T09:17:02.507Z,-1.12
2018-02-07T09:18:02.407Z,-1.1
2018-02-07T09:19:02.398Z,-1.12
2018-02-07T09:20:02.179Z,-1.07
2018-02-07T09:22:02.454Z,-1.09
2018-02-07T09:23:02.202Z,-1.12
2018-02-07T09:24:02.457Z,-0.99
2018-02-07T09:25:16.892Z,-1.16
2018-02-07T09:26:02.490Z,-0.97
2018-02-07T09:27:02.588Z,-0.98
2018-02-07T09:28:02.527Z,-1.07
2018-02-07T09:30:02.288Z,-0.99
2018-02-07T09:31:02.287Z,-1.05
2018-02-07T09:32:02.562Z,-1.07
2018-02-07T09:33:02.572Z,-0.99
2018-02-07T09:35:02.353Z,-1.09
2018-02-07T09:36:02.623Z,-0.98
2018-02-07T09:38:17.321Z,-0.98
2018-02-07T09:39:02.655Z,-0.97
2018-02-07T09:40:17.336Z,-1.01
2018-02-07T09:41:02.665Z,-1.01
2018-02-07T09:42:02.697Z,-0.97
2018-02-07T09:43:02.440Z,-0.99
2018-02-07T09:44:02.722Z,-0.95
2018-02-07T09:45:02.723Z,-0.95
2018-02-07T09:46:02.488Z,-0.97
2018-02-07T09:47:17.163Z,-1.01
2018-02-07T09:48:02.767Z,-0.98
2018-02-07T09:49:02.794Z,-0.99
2018-02-07T09:50:02.781Z,-0.94
2018-02-07T09:51:02.793Z,-1.01
2018-02-07T09:52:02.564Z,-1.02
2018-02-07T09:53:02.823Z,-0.94
2018-02-07T09:54:02.851Z,-0.89
2018-02-07T09:55:02.846Z,-0.86
2018-02-07T09:56:02.892Z,-0.94
2018-02-07T09:57:02.613Z,-0.91
2018-02-07T09:58:02.623Z,-0.94
2018-02-07T09:59:02.897Z,-1.02
2018-02-07T10:00:02.921Z,-0.97
2018-02-07T10:01:02.920Z,-0.97
2018-02-07T10:02:02.925Z,-0.91
2018-02-07T10:03:02.955Z,-0.95
2018-02-07T10:04:02.700Z,-0.98
2018-02-07T10:05:02.969Z,-0.97
2018-02-07T10:06:02.977Z,-0.98
2018-02-07T10:07:03.104Z,-1.04
2018-02-07T10:08:03.009Z,-0.98
2018-02-07T10:09:03.014Z,-0.97
2018-02-07T10:10:03.013Z,-0.95
2018-02-07T10:11:03.066Z,-1.04
2018-02-07T10:13:03.068Z,-0.98
2018-02-07T10:14:03.087Z,-0.95
2018-02-07T10:15:03.107Z,-0.95
2018-02-07T10:16:03.095Z,-0.95
2018-02-07T10:17:03.117Z,-0.73
2018-02-07T10:18:02.880Z,-0.78
2018-02-07T10:19:02.634Z,-0.6
2018-02-07T10:20:03.144Z,-0.58
2018-02-07T10:21:03.174Z,-0.51
2018-02-07T10:22:02.667Z,-0.51
2018-02-07T10:23:03.183Z,-0.34
2018-02-07T10:24:02.965Z,-0.33
2018-02-07T10:25:03.203Z,-0.28
2018-02-07T10:26:02.986Z,-0.4
2018-02-07T10:27:03.254Z,-0.29
2018-02-07T10:28:17.917Z,-0.22
2018-02-07T10:29:03.284Z,-0.19
2018-02-07T10:30:02.775Z,-0.08
2018-02-07T10:31:17.963Z,0.07
2018-02-07T10:32:03.298Z,0.04
2018-02-07T10:33:03.309Z,0.18
2018-02-07T10:34:03.346Z,0.15
2018-02-07T10:35:03.117Z,0.13
2018-02-07T10:36:03.362Z,0.17
2018-02-07T10:37:03.120Z,0.24
2018-02-07T10:38:03.367Z,0.29
2018-02-07T10:39:03.386Z,0.49
2018-02-07T10:40:03.148Z,0.6
2018-02-07T10:41:18.145Z,0.61
2018-02-07T10:42:03.186Z,0.6
2018-02-07T10:43:17.862Z,0.72
2018-02-07T10:44:17.874Z,0.73
2018-02-07T10:45:18.143Z,0.68
2018-02-07T10:46:03.496Z,0.7
2018-02-07T10:47:03.479Z,0.78
2018-02-07T10:49:03.525Z,0.79
2018-02-07T10:50:03.043Z,0.83
2018-02-07T10:51:03.557Z,0.79
2018-02-07T10:53:03.326Z,0.68
2018-02-07T10:54:03.575Z,0.76
2018-02-07T10:55:03.614Z,0.73
2018-02-07T10:56:03.613Z,0.68
2018-02-07T10:57:03.636Z,0.72
2018-02-07T10:58:03.133Z,0.72
2018-02-07T10:59:03.637Z,0.66
2018-02-07T11:00:18.346Z,0.76
2018-02-07T11:01:03.674Z,0.66
2018-02-07T11:02:18.105Z,0.72
2018-02-07T11:03:03.203Z,0.88
2018-02-07T11:04:03.720Z,0.88
2018-02-07T11:05:03.724Z,0.97
2018-02-07T11:06:03.728Z,0.96
2018-02-07T11:07:18.441Z,0.91
2018-02-07T11:08:03.768Z,0.93
2018-02-07T11:09:18.444Z,1.08
2018-02-07T11:10:03.791Z,0.9
2018-02-07T11:11:03.817Z,0.98
2018-02-07T11:12:03.574Z,1.06
2018-02-07T11:13:03.844Z,1.05
2018-02-07T11:14:03.612Z,1.12
2018-02-07T11:15:18.552Z,1.08
2018-02-07T11:16:03.905Z,1.11
2018-02-07T11:17:03.868Z,1.33
2018-02-07T11:18:03.898Z,1.34
2018-02-07T11:19:18.581Z,1.29
2018-02-07T11:20:03.931Z,1.36
2018-02-07T11:21:03.687Z,1.22
2018-02-07T11:22:03.962Z,1.32
2018-02-07T11:23:03.718Z,1.37
2018-02-07T11:24:03.985Z,1.51
2018-02-07T11:25:04.000Z,1.47
2018-02-07T11:26:03.749Z,1.4
2018-02-07T11:27:03.778Z,1.45
2018-02-07T11:28:04.028Z,1.41
2018-02-07T11:29:03.804Z,1.42
2018-02-07T11:32:04.105Z,1.55
2018-02-07T11:33:04.101Z,1.62
2018-02-07T11:35:04.126Z,1.54
2018-02-07T11:36:04.202Z,1.79
2018-02-07T11:37:04.163Z,1.77
2018-02-07T11:38:04.155Z,1.68
2018-02-07T11:39:04.180Z,1.73
2018-02-07T11:40:04.196Z,1.68
2018-02-07T11:41:03.704Z,1.76
2018-02-07T11:42:04.217Z,1.66
2018-02-07T11:43:03.983Z,1.65
2018-02-07T11:44:04.238Z,1.77
2018-02-07T11:45:04.272Z,1.7
2018-02-07T11:46:04.259Z,1.73
2018-02-07T11:47:18.710Z,1.69
2018-02-07T11:48:04.314Z,1.73
2018-02-07T11:49:04.316Z,1.69
2018-02-07T11:50:04.076Z,1.79
2018-02-07T11:51:04.078Z,1.76
2018-02-07T11:53:04.175Z,1.66
2018-02-07T11:54:04.138Z,1.62
2018-02-07T11:55:04.381Z,1.6
2018-02-07T11:56:04.170Z,1.68
2018-02-07T11:57:19.094Z,1.7
2018-02-07T11:58:04.230Z,1.76
2018-02-07T11:59:04.572Z,1.7
2018-02-07T12:00:04.449Z,1.77
2018-02-07T12:01:04.486Z,1.87
2018-02-07T12:02:04.481Z,1.8
2018-02-07T12:03:19.178Z,1.81
2018-02-07T12:04:04.523Z,1.86
2018-02-07T12:05:04.533Z,1.87
2018-02-07T12:06:04.303Z,2.02
2018-02-07T12:07:04.562Z,2.24
2018-02-07T12:09:04.579Z,2.25
2018-02-07T12:10:04.345Z,2.36
2018-02-07T12:11:19.297Z,2.38
2018-02-07T12:12:04.620Z,2.31
2018-02-07T12:13:04.647Z,2.45
2018-02-07T12:14:04.656Z,2.18
2018-02-07T12:15:04.414Z,2.2
2018-02-07T12:16:04.426Z,2.16
2018-02-07T12:17:04.700Z,2.16
2018-02-07T12:18:04.469Z,2.17
2018-02-07T12:19:19.401Z,2.16
2018-02-07T12:20:04.737Z,2.17
2018-02-07T12:21:19.164Z,2.27
2018-02-07T12:22:04.842Z,2.25
2018-02-07T12:23:04.515Z,2.18
2018-02-07T12:24:04.537Z,2.21
2018-02-07T12:26:04.563Z,2.1
2018-02-07T12:27:04.831Z,2.16
2018-02-07T12:28:19.506Z,2.07
2018-02-07T12:29:04.869Z,2.16
2018-02-07T12:30:04.630Z,2.16
2018-02-07T12:31:04.632Z,2.1
2018-02-07T12:32:04.886Z,2
2018-02-07T12:33:04.910Z,2.14
2018-02-07T12:34:04.946Z,2.12
2018-02-07T12:35:19.603Z,2.21
2018-02-07T12:36:04.956Z,2.18
2018-02-07T12:37:04.972Z,2.36
2018-02-07T12:40:05.027Z,2.38
2018-02-07T12:41:05.012Z,2.46
2018-02-07T12:42:04.534Z,2.48
2018-02-07T12:43:05.049Z,2.46
2018-02-07T12:44:05.064Z,2.48
2018-02-07T12:45:19.742Z,2.46
2018-02-07T12:46:04.589Z,2.46
2018-02-07T12:47:04.834Z,2.52
2018-02-07T12:48:04.870Z,2.57
2018-02-07T12:49:05.135Z,2.52
2018-02-07T12:50:19.808Z,2.54
2018-02-07T12:51:05.162Z,2.56
2018-02-07T12:52:05.174Z,2.66
2018-02-07T12:53:05.194Z,2.66
2018-02-07T12:54:05.205Z,2.66
2018-02-07T12:55:05.225Z,2.64
2018-02-07T12:56:04.963Z,2.67
2018-02-07T12:57:05.238Z,2.77
2018-02-07T12:58:05.008Z,2.74
2018-02-07T12:59:05.038Z,2.71
2018-02-07T13:01:05.048Z,2.67
2018-02-07T13:02:05.058Z,2.72
2018-02-07T13:03:20.005Z,2.59
2018-02-07T13:04:05.330Z,2.57
2018-02-07T13:05:05.099Z,2.69
2018-02-07T13:06:06.357Z,2.87
2018-02-07T13:07:05.137Z,2.85
2018-02-07T13:08:05.390Z,2.75
2018-02-07T13:09:05.183Z,2.71
2018-02-07T13:10:04.908Z,2.69
2018-02-07T13:11:05.451Z,2.74
2018-02-07T13:12:05.456Z,2.74
2018-02-07T13:13:05.229Z,2.63
2018-02-07T13:14:05.459Z,2.78
2018-02-07T13:15:05.490Z,2.63
2018-02-07T13:16:05.257Z,2.77
2018-02-07T13:17:05.522Z,2.72
2018-02-07T13:18:05.555Z,2.49
2018-02-07T13:19:05.531Z,2.46
2018-02-07T13:20:05.313Z,2.38
2018-02-07T13:21:05.333Z,2.34
2018-02-07T13:22:20.258Z,2.35
2018-02-07T13:23:05.603Z,2.35
2018-02-07T13:24:20.294Z,2.34
2018-02-07T13:25:05.640Z,2.27
2018-02-07T13:26:05.641Z,2.3
2018-02-07T13:27:05.659Z,2.25
2018-02-07T13:28:05.422Z,2.28
2018-02-07T13:29:05.693Z,2.23
2018-02-07T13:30:05.455Z,2.23
2018-02-07T13:31:05.452Z,2.3
2018-02-07T13:32:05.730Z,2.3
2018-02-07T13:33:05.740Z,2.3
2018-02-07T13:34:05.864Z,2.31
2018-02-07T13:35:05.524Z,2.35
2018-02-07T13:36:05.780Z,2.34
2018-02-07T13:37:05.559Z,2.41
2018-02-07T13:38:20.531Z,2.42
2018-02-07T13:39:20.239Z,2.34
2018-02-07T13:40:05.333Z,2.43
2018-02-07T13:41:05.841Z,2.42
2018-02-07T13:42:05.886Z,2.34
2018-02-07T13:43:05.887Z,2.42
2018-02-07T13:44:05.890Z,2.46
2018-02-07T13:46:05.655Z,2.38
2018-02-07T13:47:05.942Z,2.38
2018-02-07T13:48:05.959Z,2.43
2018-02-07T13:49:05.989Z,2.45
2018-02-07T13:50:06.084Z,2.49
2018-02-07T13:51:05.733Z,2.45
2018-02-07T13:52:05.991Z,2.45
2018-02-07T13:53:05.766Z,2.53
2018-02-07T13:55:06.040Z,2.59